Naniwa Maru No.7 — JD2456 — position and weather

sailwx.info

Track history (hours):
 
Tides and Currents Weather Stations Pressure Air Temp Water Temp Dewpoint Dewpoint Depression Visibility Wind Speed Wind Dir Waves Ship Positions

Naniwa Maru No.7

Last reported at 2017-Sep-24 10:41 UTC. Time now 2017-Sep-24 15:52 UTC.
Position N 34°35' E 135°26'.

Length 105 m; draft 5.3 m.

Type: Tanker. MMSI: 431000301.

Date/timePositionNaut miles runAvg speedWind from/ knotsBaromVisibWave heightAir tempDewpointWater temp
2017-Sep-24 10:41N 34°35' E 135°26'0 0.0
2017-Sep-24 08:15N 34°35' E 135°26'0 0.2
2017-Sep-24 08:00N 34°35' E 135°26'1 1.3
2017-Sep-24 07:30N 34°35' E 135°25'4 7.7
2017-Sep-24 07:00N 34°36' E 135°21'2 4.0
2017-Sep-24 06:30N 34°35' E 135°18'0 0.0
2017-Sep-24 05:59N 34°35' E 135°18'0 0.0
2017-Sep-24 05:29N 34°35' E 135°18'0 0.0
2017-Sep-24 04:59N 34°35' E 135°18'0 0.0
2017-Sep-24 04:29N 34°35' E 135°18'0 0.2
2017-Sep-24 03:59N 34°35' E 135°18'0 0.1
2017-Sep-24 03:29N 34°35' E 135°18'0 0.0
2017-Sep-24 02:59N 34°35' E 135°18'0 0.0
2017-Sep-24 02:29N 34°35' E 135°18'0 0.0
2017-Sep-24 01:59N 34°35' E 135°18'0 0.0
2017-Sep-24 01:29N 34°35' E 135°18'0 0.0
2017-Sep-24 00:59N 34°35' E 135°18'0 0.0
2017-Sep-24 00:29N 34°35' E 135°18'0 0.0
2017-Sep-23 23:23N 34°35' E 135°18'0 0.0
2017-Sep-23 22:35N 34°35' E 135°18'0 0.1
2017-Sep-23 22:29N 34°35' E 135°18'0 0.0
2017-Sep-23 21:59N 34°35' E 135°18'0 0.0
2017-Sep-23 21:29N 34°35' E 135°18'0 0.0
2017-Sep-23 20:59N 34°35' E 135°18'0 0.0
2017-Sep-23 20:29N 34°35' E 135°18'0 0.0
2017-Sep-23 19:41N 34°35' E 135°18'  
2017-Sep-21 10:40N 34°53' E 139°23'312.6
2017-Sep-21 10:28N 34°55' E 139°25'612.6
2017-Sep-21 10:00N 34°58' E 139°31'714.3
2017-Sep-21 09:30N 35°03' E 139°37'714.2
2017-Sep-21 09:00N 35°08' E 139°44'713.5
2017-Sep-21 08:31N 35°14' E 139°46'713.3
2017-Sep-21 08:00N 35°20' E 139°43'612.9
2017-Sep-21 07:31N 35°26' E 139°45'714.2
2017-Sep-21 07:00N 35°30' E 139°52'714.5
2017-Sep-21 06:30N 35°33' E 140°00'2 0.2
2017-Sep-20 21:42N 35°34' E 140°02'1 1.9
2017-Sep-20 21:26N 35°33' E 140°02'0 0.0
2017-Sep-20 20:56N 35°33' E 140°02'0 0.0
2017-Sep-20 20:26N 35°33' E 140°02'0 0.1
2017-Sep-20 19:56N 35°33' E 140°02'0 0.0
2017-Sep-20 19:26N 35°33' E 140°02'0 0.0
2017-Sep-20 18:56N 35°33' E 140°02'0 0.0
2017-Sep-20 18:29N 35°33' E 140°02'3 5.9
2017-Sep-20 17:59N 35°32' E 139°59'714.9
2017-Sep-20 17:31N 35°28' E 139°51'714.3
2017-Sep-20 17:00N 35°23' E 139°46'611.9
2017-Sep-20 16:31N 35°17' E 139°46'713.3
2017-Sep-20 16:00N 35°10' E 139°46'714.7
2017-Sep-20 15:30N 35°03' E 139°44'712.9
2017-Sep-20 15:00N 34°56' E 139°44'  
Track history (hours):
 
Tides and Currents Weather Stations Pressure Air Temp Water Temp Dewpoint Dewpoint Depression Visibility Wind Speed Wind Dir Waves Ship Positions

Naniwa Maru No.7

Last reported at 2017-Sep-24 10:41 UTC. Time now 2017-Sep-24 15:52 UTC.
Position N 34°35' E 135°26'.

Length 105 m; draft 5.3 m.

Type: Tanker. MMSI: 431000301.

Date/timePositionNaut miles runAvg speedWind from/ knotsBaromVisibWave heightAir tempDewpointWater temp
2017-Sep-24 10:41N 34°35' E 135°26'0 0.0
2017-Sep-24 08:15N 34°35' E 135°26'0 0.2
2017-Sep-24 08:00N 34°35' E 135°26'1 1.3
2017-Sep-24 07:30N 34°35' E 135°25'4 7.7
2017-Sep-24 07:00N 34°36' E 135°21'2 4.0
2017-Sep-24 06:30N 34°35' E 135°18'0 0.0
2017-Sep-24 05:59N 34°35' E 135°18'0 0.0
2017-Sep-24 05:29N 34°35' E 135°18'0 0.0
2017-Sep-24 04:59N 34°35' E 135°18'0 0.0
2017-Sep-24 04:29N 34°35' E 135°18'0 0.2
2017-Sep-24 03:59N 34°35' E 135°18'0 0.1
2017-Sep-24 03:29N 34°35' E 135°18'0 0.0
2017-Sep-24 02:59N 34°35' E 135°18'0 0.0
2017-Sep-24 02:29N 34°35' E 135°18'0 0.0
2017-Sep-24 01:59N 34°35' E 135°18'0 0.0
2017-Sep-24 01:29N 34°35' E 135°18'0 0.0
2017-Sep-24 00:59N 34°35' E 135°18'0 0.0
2017-Sep-24 00:29N 34°35' E 135°18'0 0.0
2017-Sep-23 23:23N 34°35' E 135°18'0 0.0
2017-Sep-23 22:35N 34°35' E 135°18'0 0.1
2017-Sep-23 22:29N 34°35' E 135°18'0 0.0
2017-Sep-23 21:59N 34°35' E 135°18'0 0.0
2017-Sep-23 21:29N 34°35' E 135°18'0 0.0
2017-Sep-23 20:59N 34°35' E 135°18'0 0.0
2017-Sep-23 20:29N 34°35' E 135°18'0 0.0
2017-Sep-23 19:41N 34°35' E 135°18'  
2017-Sep-21 10:40N 34°53' E 139°23'312.6
2017-Sep-21 10:28N 34°55' E 139°25'612.6
2017-Sep-21 10:00N 34°58' E 139°31'714.3
2017-Sep-21 09:30N 35°03' E 139°37'714.2
2017-Sep-21 09:00N 35°08' E 139°44'713.5
2017-Sep-21 08:31N 35°14' E 139°46'713.3
2017-Sep-21 08:00N 35°20' E 139°43'612.9
2017-Sep-21 07:31N 35°26' E 139°45'714.2
2017-Sep-21 07:00N 35°30' E 139°52'714.5
2017-Sep-21 06:30N 35°33' E 140°00'2 0.2
2017-Sep-20 21:42N 35°34' E 140°02'1 1.9
2017-Sep-20 21:26N 35°33' E 140°02'0 0.0
2017-Sep-20 20:56N 35°33' E 140°02'0 0.0
2017-Sep-20 20:26N 35°33' E 140°02'0 0.1
2017-Sep-20 19:56N 35°33' E 140°02'0 0.0
2017-Sep-20 19:26N 35°33' E 140°02'0 0.0
2017-Sep-20 18:56N 35°33' E 140°02'0 0.0
2017-Sep-20 18:29N 35°33' E 140°02'3 5.9
2017-Sep-20 17:59N 35°32' E 139°59'714.9
2017-Sep-20 17:31N 35°28' E 139°51'714.3
2017-Sep-20 17:00N 35°23' E 139°46'611.9
2017-Sep-20 16:31N 35°17' E 139°46'713.3
2017-Sep-20 16:00N 35°10' E 139°46'714.7
2017-Sep-20 15:30N 35°03' E 139°44'712.9
2017-Sep-20 15:00N 34°56' E 139°44'  

Dump ship's entire track history